Peru, Indiana
Current Conditions -  °F | °C
As of 6:58 AM on Monday 26 Jan 2015 (Local Time) from KGUS Reporting Station
Clear Clear  
Wind Chill: -1°   Ceiling: Unl
Heat Index: 11°   Visibility: 10mi
Dew Point:   Wind: 8mph
Humidity: 81%   Direction: 30°NNE
Pressure: 29.92"   Gusts: NA
Location:  40.75°N, 86.07°W
Report Text: KGUS 261158Z AUTO 03007KT 10SM CLR M12/M14 A2992 RMK AO2 SLP149 70031 T11171144 11054 21117 53001
Loading
Personal Weather Stations






























Interactive Weather Map New forecast layout! Learn more

10-Day Weather Forecast

Advertisements
Track Severe Weather on mobile